CheckWX is a tool to help pilots better visualize weather data.  It is not intended as a substitute for an official pre-flight weather briefing.

22:22:10 UTC

KBFF METAR
Western Nebraska Regional / William B Heilig Field Airport
Scottsbluff, Nebraska, USA
Current

29 mins ago

KBFF 082153Z AUTO 36007KT 10SM CLR 16/M01 A3006 RMK AO2 SLP170 T01561011
Observed
Apr-8 @ 21:53 UTC
Wind
  • 360° at 7 KTS
Visibility
Flight Rules
VFR
Cloud Levels
  • Clear skies
Temperature
16°C / 61°F
Dewpoint
-1°C / 30°F
Humidity
31%
Altimeter
30.06" Hg
Pressure
1017.92 hPa
Previous

1 hour ago

KBFF 082053Z AUTO 04007KT 010V070 10SM CLR 15/M01 A3009 RMK AO2 SLP178 T01501011 58014
Observed
Apr-8 @ 20:53 UTC
Wind
  • 040° at 7 KTS
Visibility
Flight Rules
VFR
Cloud Levels
  • Clear skies
Temperature
15°C / 59°F
Dewpoint
-1°C / 30°F
Humidity
34%
Altimeter
30.09" Hg
Pressure
1018.92 hPa
Previous

2 hours ago

KBFF 081953Z AUTO 03013KT 10SM CLR 14/M01 A3011 RMK AO2 SLP188 T01391011
Observed
Apr-8 @ 19:53 UTC
Wind
  • 030° at 13 KTS
Visibility
Flight Rules
VFR
Cloud Levels
  • Clear skies
Temperature
14°C / 57°F
Dewpoint
-1°C / 30°F
Humidity
36%
Altimeter
30.11" Hg
Pressure
1019.62 hPa